logo
Rechercher aéroport 
image banner adimage banner adimage banner ad
image banner ad

L17 - Taft-Kern County

Situé à Taft, United States

ICAO - L17, IATA -

Données fournies par Airmate  

Information générale

Coordonnées: N35°8'30" W119°26'16"
Élévation : 858 feet MSL.
Variation magnétique : 14° East
Voir autres Aéroports à California

Données opérationnelles

Special qualification required
Heure actuelle UTC:
Heure actuelle locale:
Météo à : KBFL - Meadows Field ( 47 km )
METAR: KBFL 011754Z 26003KT 7SM CLR 27/12 A2981 RMK AO2 SLP089 T02670117 10267 20194 50000
TAF: KBFL 011120Z 0112/0212 VRB02KT P6SM SKC
Voir NOTAMs / SUP AIP / TFR affectant cet aéroport [VIEW]
Fréquences de communication: [VIEW]

Pistes:

Identifiant RWYQFULongueur (ft)Largeur (ft)SurfaceLDA (ft)
0780°328360ASPH
25260°328360ASPH

Coordonnées de l'aéroport

Adresse: Taft United States

Vue satellite de L17